sensor_id;sensor_type;location;lat;lon;timestamp;P1;durP1;ratioP1;P2;durP2;ratioP2
37164;SDS011;23057;48.554;14.454;2022-11-15T00:01:01;9.00;;;4.53;;
37164;SDS011;23057;48.554;14.454;2022-11-15T00:03:38;10.60;;;4.82;;
37164;SDS011;23057;48.554;14.454;2022-11-15T00:06:09;7.35;;;4.80;;
37164;SDS011;23057;48.554;14.454;2022-11-15T00:08:40;8.75;;;5.07;;
37164;SDS011;23057;48.554;14.454;2022-11-15T00:11:11;8.70;;;4.90;;
37164;SDS011;23057;48.554;14.454;2022-11-15T00:13:42;9.75;;;5.13;;
37164;SDS011;23057;48.554;14.454;2022-11-15T00:16:13;9.88;;;5.90;;
37164;SDS011;23057;48.554;14.454;2022-11-15T00:18:44;9.00;;;5.28;;
37164;SDS011;23057;48.554;14.454;2022-11-15T00:21:15;8.18;;;5.07;;
37164;SDS011;23057;48.554;14.454;2022-11-15T00:23:47;9.93;;;5.55;;
37164;SDS011;23057;48.554;14.454;2022-11-15T00:26:18;8.85;;;4.50;;
37164;SDS011;23057;48.554;14.454;2022-11-15T00:28:51;9.73;;;5.03;;
37164;SDS011;23057;48.554;14.454;2022-11-15T00:31:23;9.23;;;5.50;;
37164;SDS011;23057;48.554;14.454;2022-11-15T00:33:53;9.02;;;5.15;;
37164;SDS011;23057;48.554;14.454;2022-11-15T00:36:24;9.60;;;5.63;;
37164;SDS011;23057;48.554;14.454;2022-11-15T00:38:55;11.52;;;5.25;;
37164;SDS011;23057;48.554;14.454;2022-11-15T00:41:26;7.88;;;4.53;;
37164;SDS011;23057;48.554;14.454;2022-11-15T00:43:57;9.10;;;5.05;;
37164;SDS011;23057;48.554;14.454;2022-11-15T00:46:28;9.20;;;4.85;;
37164;SDS011;23057;48.554;14.454;2022-11-15T00:48:58;6.95;;;4.47;;
37164;SDS011;23057;48.554;14.454;2022-11-15T00:51:29;9.63;;;5.38;;
37164;SDS011;23057;48.554;14.454;2022-11-15T00:54:00;6.57;;;4.28;;
37164;SDS011;23057;48.554;14.454;2022-11-15T00:56:31;7.43;;;4.47;;
37164;SDS011;23057;48.554;14.454;2022-11-15T00:59:02;7.45;;;4.78;;
37164;SDS011;23057;48.554;14.454;2022-11-15T01:01:33;5.57;;;3.50;;
37164;SDS011;23057;48.554;14.454;2022-11-15T01:04:04;5.88;;;4.15;;
37164;SDS011;23057;48.554;14.454;2022-11-15T01:06:35;8.45;;;4.93;;
37164;SDS011;23057;48.554;14.454;2022-11-15T01:09:06;9.45;;;4.05;;
37164;SDS011;23057;48.554;14.454;2022-11-15T01:11:36;10.82;;;5.13;;
37164;SDS011;23057;48.554;14.454;2022-11-15T01:14:07;9.52;;;4.72;;
37164;SDS011;23057;48.554;14.454;2022-11-15T01:16:38;6.35;;;3.80;;
37164;SDS011;23057;48.554;14.454;2022-11-15T01:19:09;7.78;;;4.25;;
37164;SDS011;23057;48.554;14.454;2022-11-15T01:21:40;8.38;;;4.43;;
37164;SDS011;23057;48.554;14.454;2022-11-15T01:24:11;10.90;;;4.90;;
37164;SDS011;23057;48.554;14.454;2022-11-15T01:26:43;8.60;;;5.03;;
37164;SDS011;23057;48.554;14.454;2022-11-15T01:29:14;7.05;;;4.13;;
37164;SDS011;23057;48.554;14.454;2022-11-15T01:31:44;7.38;;;4.40;;
37164;SDS011;23057;48.554;14.454;2022-11-15T01:34:15;7.40;;;4.57;;
37164;SDS011;23057;48.554;14.454;2022-11-15T01:36:46;8.02;;;4.32;;
37164;SDS011;23057;48.554;14.454;2022-11-15T01:39:17;7.35;;;4.22;;
37164;SDS011;23057;48.554;14.454;2022-11-15T01:41:49;7.30;;;4.47;;
37164;SDS011;23057;48.554;14.454;2022-11-15T01:47:28;6.30;;;4.32;;
37164;SDS011;23057;48.554;14.454;2022-11-15T01:50:18;8.57;;;5.28;;
37164;SDS011;23057;48.554;14.454;2022-11-15T01:52:57;8.25;;;4.28;;
37164;SDS011;23057;48.554;14.454;2022-11-15T01:55:28;7.32;;;4.22;;
37164;SDS011;23057;48.554;14.454;2022-11-15T01:58:00;8.10;;;4.72;;
37164;SDS011;23057;48.554;14.454;2022-11-15T02:00:36;7.55;;;4.80;;
37164;SDS011;23057;48.554;14.454;2022-11-15T02:03:07;8.38;;;5.00;;
37164;SDS011;23057;48.554;14.454;2022-11-15T02:05:38;8.10;;;4.80;;
37164;SDS011;23057;48.554;14.454;2022-11-15T02:08:11;9.95;;;5.47;;
37164;SDS011;23057;48.554;14.454;2022-11-15T02:10:49;7.80;;;4.88;;
37164;SDS011;23057;48.554;14.454;2022-11-15T02:13:20;13.68;;;5.32;;
37164;SDS011;23057;48.554;14.454;2022-11-15T02:25:22;12.40;;;4.72;;
37164;SDS011;23057;48.554;14.454;2022-11-15T02:37:47;8.90;;;5.15;;
37164;SDS011;23057;48.554;14.454;2022-11-15T02:40:58;7.18;;;4.82;;
37164;SDS011;23057;48.554;14.454;2022-11-15T02:43:45;10.60;;;4.53;;
37164;SDS011;23057;48.554;14.454;2022-11-15T02:49:49;12.00;;;4.88;;
37164;SDS011;23057;48.554;14.454;2022-11-15T02:52:26;6.80;;;4.03;;
37164;SDS011;23057;48.554;14.454;2022-11-15T02:55:01;7.93;;;4.43;;
37164;SDS011;23057;48.554;14.454;2022-11-15T03:00:40;11.25;;;5.00;;
37164;SDS011;23057;48.554;14.454;2022-11-15T03:04:09;6.63;;;4.00;;
37164;SDS011;23057;48.554;14.454;2022-11-15T03:10:07;5.95;;;3.88;;
37164;SDS011;23057;48.554;14.454;2022-11-15T03:13:16;4.68;;;3.63;;
37164;SDS011;23057;48.554;14.454;2022-11-15T03:16:37;6.13;;;3.70;;
37164;SDS011;23057;48.554;14.454;2022-11-15T03:22:16;5.05;;;3.25;;
37164;SDS011;23057;48.554;14.454;2022-11-15T03:24:57;5.00;;;3.28;;
37164;SDS011;23057;48.554;14.454;2022-11-15T03:27:39;8.20;;;4.47;;
37164;SDS011;23057;48.554;14.454;2022-11-15T03:30:18;7.00;;;4.22;;
37164;SDS011;23057;48.554;14.454;2022-11-15T03:32:51;6.32;;;4.20;;
37164;SDS011;23057;48.554;14.454;2022-11-15T03:35:30;14.25;;;4.97;;
37164;SDS011;23057;48.554;14.454;2022-11-15T03:38:29;8.68;;;4.65;;
37164;SDS011;23057;48.554;14.454;2022-11-15T03:41:05;6.65;;;4.00;;
37164;SDS011;23057;48.554;14.454;2022-11-15T03:43:59;8.35;;;4.10;;
37164;SDS011;23057;48.554;14.454;2022-11-15T03:50:14;8.18;;;3.70;;
37164;SDS011;23057;48.554;14.454;2022-11-15T03:52:50;7.00;;;4.45;;
37164;SDS011;23057;48.554;14.454;2022-11-15T03:55:25;7.45;;;4.47;;
37164;SDS011;23057;48.554;14.454;2022-11-15T03:57:56;6.57;;;3.72;;
37164;SDS011;23057;48.554;14.454;2022-11-15T04:00:30;4.78;;;2.95;;
37164;SDS011;23057;48.554;14.454;2022-11-15T04:03:01;6.20;;;3.83;;
37164;SDS011;23057;48.554;14.454;2022-11-15T04:05:31;5.55;;;3.75;;
37164;SDS011;23057;48.554;14.454;2022-11-15T04:08:02;6.57;;;3.78;;
37164;SDS011;23057;48.554;14.454;2022-11-15T04:10:33;5.57;;;3.35;;
37164;SDS011;23057;48.554;14.454;2022-11-15T04:13:04;6.30;;;3.67;;
37164;SDS011;23057;48.554;14.454;2022-11-15T04:15:35;6.65;;;3.85;;
37164;SDS011;23057;48.554;14.454;2022-11-15T04:18:06;6.22;;;3.90;;
37164;SDS011;23057;48.554;14.454;2022-11-15T04:20:37;5.90;;;3.60;;
37164;SDS011;23057;48.554;14.454;2022-11-15T04:23:27;5.45;;;3.05;;
37164;SDS011;23057;48.554;14.454;2022-11-15T04:26:20;13.00;;;7.00;;
37164;SDS011;23057;48.554;14.454;2022-11-15T04:28:53;7.18;;;4.88;;
37164;SDS011;23057;48.554;14.454;2022-11-15T04:31:42;10.25;;;4.40;;
37164;SDS011;23057;48.554;14.454;2022-11-15T04:34:13;6.65;;;4.60;;
37164;SDS011;23057;48.554;14.454;2022-11-15T04:36:44;6.65;;;4.20;;
37164;SDS011;23057;48.554;14.454;2022-11-15T04:39:34;5.55;;;3.58;;
37164;SDS011;23057;48.554;14.454;2022-11-15T04:42:05;5.03;;;3.28;;
37164;SDS011;23057;48.554;14.454;2022-11-15T04:44:37;6.45;;;3.67;;
37164;SDS011;23057;48.554;14.454;2022-11-15T04:47:08;6.25;;;3.47;;
37164;SDS011;23057;48.554;14.454;2022-11-15T04:49:39;8.98;;;3.67;;
37164;SDS011;23057;48.554;14.454;2022-11-15T04:52:09;8.57;;;4.07;;
37164;SDS011;23057;48.554;14.454;2022-11-15T04:54:40;8.23;;;4.35;;
37164;SDS011;23057;48.554;14.454;2022-11-15T04:57:12;6.78;;;3.85;;
37164;SDS011;23057;48.554;14.454;2022-11-15T04:59:44;9.35;;;3.80;;
37164;SDS011;23057;48.554;14.454;2022-11-15T05:02:15;6.82;;;4.13;;
37164;SDS011;23057;48.554;14.454;2022-11-15T05:04:46;7.15;;;3.95;;
37164;SDS011;23057;48.554;14.454;2022-11-15T05:07:17;6.85;;;4.03;;
37164;SDS011;23057;48.554;14.454;2022-11-15T05:09:48;7.50;;;3.65;;
37164;SDS011;23057;48.554;14.454;2022-11-15T05:12:19;5.50;;;4.15;;
37164;SDS011;23057;48.554;14.454;2022-11-15T05:14:49;6.75;;;3.53;;
37164;SDS011;23057;48.554;14.454;2022-11-15T05:17:20;6.68;;;3.13;;
37164;SDS011;23057;48.554;14.454;2022-11-15T05:19:51;7.32;;;4.25;;
37164;SDS011;23057;48.554;14.454;2022-11-15T05:22:22;5.45;;;3.70;;
37164;SDS011;23057;48.554;14.454;2022-11-15T05:24:53;6.10;;;3.78;;
37164;SDS011;23057;48.554;14.454;2022-11-15T05:27:24;7.38;;;4.03;;
37164;SDS011;23057;48.554;14.454;2022-11-15T05:29:55;6.18;;;3.35;;
37164;SDS011;23057;48.554;14.454;2022-11-15T05:32:25;6.45;;;3.38;;
37164;SDS011;23057;48.554;14.454;2022-11-15T05:34:58;8.55;;;5.70;;
37164;SDS011;23057;48.554;14.454;2022-11-15T05:37:29;11.32;;;6.07;;
37164;SDS011;23057;48.554;14.454;2022-11-15T05:40:00;13.65;;;6.32;;
37164;SDS011;23057;48.554;14.454;2022-11-15T05:42:31;7.38;;;4.45;;
37164;SDS011;23057;48.554;14.454;2022-11-15T05:45:03;22.45;;;11.13;;
37164;SDS011;23057;48.554;14.454;2022-11-15T05:47:38;14.93;;;5.40;;
37164;SDS011;23057;48.554;14.454;2022-11-15T05:50:12;15.02;;;8.13;;
37164;SDS011;23057;48.554;14.454;2022-11-15T05:52:48;12.50;;;6.40;;
37164;SDS011;23057;48.554;14.454;2022-11-15T05:55:20;13.52;;;5.18;;
37164;SDS011;23057;48.554;14.454;2022-11-15T05:57:51;9.85;;;5.07;;
37164;SDS011;23057;48.554;14.454;2022-11-15T06:00:22;42.10;;;18.42;;
37164;SDS011;23057;48.554;14.454;2022-11-15T06:02:53;31.42;;;13.98;;
37164;SDS011;23057;48.554;14.454;2022-11-15T06:05:24;18.23;;;10.77;;
37164;SDS011;23057;48.554;14.454;2022-11-15T06:07:58;12.90;;;6.40;;
37164;SDS011;23057;48.554;14.454;2022-11-15T06:10:30;18.50;;;10.18;;
37164;SDS011;23057;48.554;14.454;2022-11-15T06:13:02;12.90;;;8.50;;
37164;SDS011;23057;48.554;14.454;2022-11-15T06:15:34;5.88;;;4.30;;
37164;SDS011;23057;48.554;14.454;2022-11-15T06:18:05;7.47;;;4.13;;
37164;SDS011;23057;48.554;14.454;2022-11-15T06:20:36;4.90;;;3.42;;
37164;SDS011;23057;48.554;14.454;2022-11-15T06:23:07;5.15;;;3.30;;
37164;SDS011;23057;48.554;14.454;2022-11-15T06:25:38;5.78;;;4.22;;
37164;SDS011;23057;48.554;14.454;2022-11-15T06:28:09;5.85;;;3.80;;
37164;SDS011;23057;48.554;14.454;2022-11-15T06:30:40;6.88;;;3.28;;
37164;SDS011;23057;48.554;14.454;2022-11-15T06:33:10;6.03;;;3.17;;
37164;SDS011;23057;48.554;14.454;2022-11-15T06:35:41;7.63;;;3.25;;
37164;SDS011;23057;48.554;14.454;2022-11-15T06:38:12;4.15;;;2.92;;
37164;SDS011;23057;48.554;14.454;2022-11-15T06:40:43;7.10;;;3.40;;
37164;SDS011;23057;48.554;14.454;2022-11-15T06:43:14;9.27;;;3.47;;
37164;SDS011;23057;48.554;14.454;2022-11-15T06:45:45;8.18;;;3.28;;
37164;SDS011;23057;48.554;14.454;2022-11-15T06:48:15;5.60;;;3.28;;
37164;SDS011;23057;48.554;14.454;2022-11-15T06:50:50;4.75;;;3.00;;
37164;SDS011;23057;48.554;14.454;2022-11-15T06:53:28;4.78;;;2.92;;
37164;SDS011;23057;48.554;14.454;2022-11-15T06:56:02;9.63;;;2.85;;
37164;SDS011;23057;48.554;14.454;2022-11-15T06:58:36;4.57;;;2.70;;
37164;SDS011;23057;48.554;14.454;2022-11-15T07:01:08;13.43;;;3.55;;
37164;SDS011;23057;48.554;14.454;2022-11-15T07:03:42;7.05;;;3.45;;
37164;SDS011;23057;48.554;14.454;2022-11-15T07:06:13;16.08;;;4.00;;
37164;SDS011;23057;48.554;14.454;2022-11-15T07:08:44;6.57;;;3.35;;
37164;SDS011;23057;48.554;14.454;2022-11-15T07:11:15;4.72;;;3.15;;
37164;SDS011;23057;48.554;14.454;2022-11-15T07:13:46;6.75;;;3.95;;
37164;SDS011;23057;48.554;14.454;2022-11-15T07:16:17;4.43;;;3.25;;
37164;SDS011;23057;48.554;14.454;2022-11-15T07:18:48;5.35;;;3.58;;
37164;SDS011;23057;48.554;14.454;2022-11-15T07:21:19;6.20;;;3.83;;
37164;SDS011;23057;48.554;14.454;2022-11-15T07:23:49;8.02;;;4.95;;
37164;SDS011;23057;48.554;14.454;2022-11-15T07:26:21;7.82;;;3.60;;
37164;SDS011;23057;48.554;14.454;2022-11-15T07:28:52;4.20;;;2.72;;
37164;SDS011;23057;48.554;14.454;2022-11-15T07:31:23;3.75;;;2.10;;
37164;SDS011;23057;48.554;14.454;2022-11-15T07:33:53;3.70;;;2.72;;
37164;SDS011;23057;48.554;14.454;2022-11-15T07:36:24;3.60;;;2.60;;
37164;SDS011;23057;48.554;14.454;2022-11-15T07:38:55;4.15;;;2.28;;
37164;SDS011;23057;48.554;14.454;2022-11-15T07:41:26;3.50;;;2.67;;
37164;SDS011;23057;48.554;14.454;2022-11-15T07:43:57;3.67;;;2.78;;
37164;SDS011;23057;48.554;14.454;2022-11-15T07:46:28;4.25;;;2.63;;
37164;SDS011;23057;48.554;14.454;2022-11-15T07:48:59;3.63;;;2.40;;
37164;SDS011;23057;48.554;14.454;2022-11-15T07:51:29;4.05;;;2.30;;
37164;SDS011;23057;48.554;14.454;2022-11-15T07:54:00;4.32;;;2.78;;
37164;SDS011;23057;48.554;14.454;2022-11-15T07:56:31;3.83;;;2.47;;
37164;SDS011;23057;48.554;14.454;2022-11-15T07:59:02;4.38;;;2.67;;
37164;SDS011;23057;48.554;14.454;2022-11-15T08:01:33;5.40;;;2.78;;
37164;SDS011;23057;48.554;14.454;2022-11-15T08:04:04;4.32;;;3.00;;
37164;SDS011;23057;48.554;14.454;2022-11-15T08:06:34;5.03;;;3.10;;
37164;SDS011;23057;48.554;14.454;2022-11-15T08:09:05;20.77;;;3.97;;
37164;SDS011;23057;48.554;14.454;2022-11-15T08:11:36;5.03;;;3.30;;
37164;SDS011;23057;48.554;14.454;2022-11-15T08:14:07;4.82;;;2.88;;
37164;SDS011;23057;48.554;14.454;2022-11-15T08:16:38;4.95;;;3.53;;
37164;SDS011;23057;48.554;14.454;2022-11-15T08:19:09;8.70;;;4.03;;
37164;SDS011;23057;48.554;14.454;2022-11-15T08:21:40;4.50;;;2.58;;
37164;SDS011;23057;48.554;14.454;2022-11-15T08:24:11;9.95;;;2.83;;
37164;SDS011;23057;48.554;14.454;2022-11-15T08:26:42;4.10;;;2.92;;
37164;SDS011;23057;48.554;14.454;2022-11-15T08:29:12;4.70;;;3.03;;
37164;SDS011;23057;48.554;14.454;2022-11-15T08:31:43;5.32;;;3.00;;
37164;SDS011;23057;48.554;14.454;2022-11-15T08:34:14;3.83;;;2.72;;
37164;SDS011;23057;48.554;14.454;2022-11-15T08:36:46;6.43;;;2.88;;
37164;SDS011;23057;48.554;14.454;2022-11-15T08:39:17;4.43;;;3.17;;
37164;SDS011;23057;48.554;14.454;2022-11-15T08:41:47;5.05;;;3.33;;
37164;SDS011;23057;48.554;14.454;2022-11-15T08:44:18;4.68;;;2.70;;
37164;SDS011;23057;48.554;14.454;2022-11-15T08:46:49;4.45;;;2.72;;
37164;SDS011;23057;48.554;14.454;2022-11-15T08:49:20;5.00;;;3.25;;
37164;SDS011;23057;48.554;14.454;2022-11-15T08:51:51;4.88;;;3.25;;
37164;SDS011;23057;48.554;14.454;2022-11-15T08:54:22;5.55;;;3.22;;
37164;SDS011;23057;48.554;14.454;2022-11-15T08:56:53;4.15;;;3.00;;
37164;SDS011;23057;48.554;14.454;2022-11-15T08:59:24;6.30;;;3.15;;
37164;SDS011;23057;48.554;14.454;2022-11-15T09:01:55;6.30;;;3.47;;
37164;SDS011;23057;48.554;14.454;2022-11-15T09:04:26;5.47;;;3.17;;
37164;SDS011;23057;48.554;14.454;2022-11-15T09:06:57;5.63;;;3.03;;
37164;SDS011;23057;48.554;14.454;2022-11-15T09:09:28;8.45;;;3.63;;
37164;SDS011;23057;48.554;14.454;2022-11-15T09:11:59;5.30;;;3.22;;
37164;SDS011;23057;48.554;14.454;2022-11-15T09:14:30;4.97;;;3.22;;
37164;SDS011;23057;48.554;14.454;2022-11-15T09:17:01;7.55;;;3.85;;
37164;SDS011;23057;48.554;14.454;2022-11-15T09:19:33;6.13;;;3.65;;
37164;SDS011;23057;48.554;14.454;2022-11-15T09:22:07;6.45;;;3.58;;
37164;SDS011;23057;48.554;14.454;2022-11-15T09:24:38;7.50;;;3.45;;
37164;SDS011;23057;48.554;14.454;2022-11-15T09:27:09;7.82;;;4.35;;
37164;SDS011;23057;48.554;14.454;2022-11-15T09:29:40;6.00;;;4.15;;
37164;SDS011;23057;48.554;14.454;2022-11-15T09:32:11;5.68;;;3.90;;
37164;SDS011;23057;48.554;14.454;2022-11-15T09:34:42;7.88;;;4.45;;
37164;SDS011;23057;48.554;14.454;2022-11-15T09:37:12;5.38;;;3.67;;
37164;SDS011;23057;48.554;14.454;2022-11-15T09:39:43;7.13;;;4.20;;
37164;SDS011;23057;48.554;14.454;2022-11-15T09:45:10;11.50;;;4.28;;
37164;SDS011;23057;48.554;14.454;2022-11-15T09:51:18;6.15;;;4.05;;
37164;SDS011;23057;48.554;14.454;2022-11-15T10:00:20;7.95;;;5.15;;
37164;SDS011;23057;48.554;14.454;2022-11-15T10:03:19;9.00;;;5.63;;
37164;SDS011;23057;48.554;14.454;2022-11-15T10:06:04;12.68;;;6.47;;
37164;SDS011;23057;48.554;14.454;2022-11-15T10:11:37;9.02;;;5.15;;
37164;SDS011;23057;48.554;14.454;2022-11-15T10:14:21;7.40;;;4.45;;
37164;SDS011;23057;48.554;14.454;2022-11-15T10:23:00;6.95;;;4.65;;
37164;SDS011;23057;48.554;14.454;2022-11-15T10:25:40;8.13;;;4.78;;
37164;SDS011;23057;48.554;14.454;2022-11-15T10:28:17;8.73;;;4.60;;
37164;SDS011;23057;48.554;14.454;2022-11-15T10:31:01;5.50;;;4.00;;
37164;SDS011;23057;48.554;14.454;2022-11-15T10:33:33;7.03;;;4.45;;
37164;SDS011;23057;48.554;14.454;2022-11-15T10:41:29;7.18;;;4.18;;
37164;SDS011;23057;48.554;14.454;2022-11-15T10:46:38;6.78;;;4.30;;
37164;SDS011;23057;48.554;14.454;2022-11-15T10:49:16;7.65;;;4.28;;
37164;SDS011;23057;48.554;14.454;2022-11-15T10:54:46;6.45;;;4.05;;
37164;SDS011;23057;48.554;14.454;2022-11-15T11:03:04;5.93;;;3.83;;
37164;SDS011;23057;48.554;14.454;2022-11-15T11:06:05;9.75;;;3.75;;
37164;SDS011;23057;48.554;14.454;2022-11-15T11:08:58;7.75;;;4.32;;
37164;SDS011;23057;48.554;14.454;2022-11-15T11:11:45;6.30;;;3.58;;
37164;SDS011;23057;48.554;14.454;2022-11-15T11:14:23;7.07;;;3.75;;
37164;SDS011;23057;48.554;14.454;2022-11-15T11:20:43;6.78;;;3.95;;
37164;SDS011;23057;48.554;14.454;2022-11-15T11:35:32;6.50;;;4.13;;
37164;SDS011;23057;48.554;14.454;2022-11-15T11:38:51;8.65;;;3.88;;
37164;SDS011;23057;48.554;14.454;2022-11-15T11:42:26;9.70;;;4.15;;
37164;SDS011;23057;48.554;14.454;2022-11-15T11:50:46;7.90;;;4.22;;
37164;SDS011;23057;48.554;14.454;2022-11-15T11:53:32;8.32;;;4.72;;
37164;SDS011;23057;48.554;14.454;2022-11-15T11:56:33;6.13;;;3.50;;
37164;SDS011;23057;48.554;14.454;2022-11-15T11:59:21;8.40;;;4.53;;
37164;SDS011;23057;48.554;14.454;2022-11-15T12:02:14;9.18;;;4.22;;
37164;SDS011;23057;48.554;14.454;2022-11-15T12:05:25;10.13;;;3.60;;
37164;SDS011;23057;48.554;14.454;2022-11-15T12:11:12;5.35;;;3.75;;
37164;SDS011;23057;48.554;14.454;2022-11-15T12:14:22;6.72;;;3.60;;
37164;SDS011;23057;48.554;14.454;2022-11-15T12:17:23;8.93;;;3.60;;
37164;SDS011;23057;48.554;14.454;2022-11-15T12:20:03;5.82;;;3.05;;
37164;SDS011;23057;48.554;14.454;2022-11-15T12:28:47;5.55;;;3.38;;
37164;SDS011;23057;48.554;14.454;2022-11-15T12:36:50;13.07;;;3.65;;
37164;SDS011;23057;48.554;14.454;2022-11-15T12:40:03;8.20;;;3.83;;
37164;SDS011;23057;48.554;14.454;2022-11-15T12:43:00;7.18;;;3.05;;
37164;SDS011;23057;48.554;14.454;2022-11-15T12:48:54;5.53;;;3.22;;
37164;SDS011;23057;48.554;14.454;2022-11-15T12:57:29;6.63;;;3.78;;
37164;SDS011;23057;48.554;14.454;2022-11-15T13:02:45;5.22;;;3.13;;
37164;SDS011;23057;48.554;14.454;2022-11-15T13:12:51;6.30;;;3.72;;
37164;SDS011;23057;48.554;14.454;2022-11-15T13:18:36;5.32;;;3.45;;
37164;SDS011;23057;48.554;14.454;2022-11-15T13:21:20;5.95;;;3.47;;
37164;SDS011;23057;48.554;14.454;2022-11-15T13:24:13;5.10;;;2.95;;
37164;SDS011;23057;48.554;14.454;2022-11-15T13:26:47;13.85;;;4.43;;
37164;SDS011;23057;48.554;14.454;2022-11-15T13:29:19;6.43;;;3.45;;
37164;SDS011;23057;48.554;14.454;2022-11-15T13:31:50;5.47;;;3.88;;
37164;SDS011;23057;48.554;14.454;2022-11-15T13:34:28;5.57;;;3.90;;
37164;SDS011;23057;48.554;14.454;2022-11-15T13:37:10;6.82;;;4.05;;
37164;SDS011;23057;48.554;14.454;2022-11-15T13:39:52;6.25;;;3.78;;
37164;SDS011;23057;48.554;14.454;2022-11-15T13:42:23;8.45;;;3.88;;
37164;SDS011;23057;48.554;14.454;2022-11-15T13:45:00;6.40;;;3.60;;
37164;SDS011;23057;48.554;14.454;2022-11-15T13:47:35;9.82;;;4.05;;
37164;SDS011;23057;48.554;14.454;2022-11-15T13:50:06;8.77;;;3.75;;
37164;SDS011;23057;48.554;14.454;2022-11-15T13:52:43;5.78;;;3.67;;
37164;SDS011;23057;48.554;14.454;2022-11-15T13:55:19;7.35;;;4.07;;
37164;SDS011;23057;48.554;14.454;2022-11-15T13:57:55;6.03;;;3.78;;
37164;SDS011;23057;48.554;14.454;2022-11-15T14:00:42;9.48;;;3.53;;
37164;SDS011;23057;48.554;14.454;2022-11-15T14:03:21;5.75;;;4.13;;
37164;SDS011;23057;48.554;14.454;2022-11-15T14:06:09;6.22;;;4.18;;
37164;SDS011;23057;48.554;14.454;2022-11-15T14:09:01;8.32;;;4.72;;
37164;SDS011;23057;48.554;14.454;2022-11-15T14:12:26;5.05;;;3.70;;
37164;SDS011;23057;48.554;14.454;2022-11-15T14:18:04;5.85;;;4.10;;
37164;SDS011;23057;48.554;14.454;2022-11-15T14:20:37;8.30;;;4.20;;
37164;SDS011;23057;48.554;14.454;2022-11-15T14:23:27;10.07;;;4.70;;
37164;SDS011;23057;48.554;14.454;2022-11-15T14:25:59;7.85;;;4.80;;
37164;SDS011;23057;48.554;14.454;2022-11-15T14:28:31;8.77;;;4.35;;
37164;SDS011;23057;48.554;14.454;2022-11-15T14:31:10;8.82;;;3.60;;
37164;SDS011;23057;48.554;14.454;2022-11-15T14:33:45;13.00;;;4.22;;
37164;SDS011;23057;48.554;14.454;2022-11-15T14:36:20;13.82;;;4.13;;
37164;SDS011;23057;48.554;14.454;2022-11-15T14:38:51;14.50;;;4.85;;
37164;SDS011;23057;48.554;14.454;2022-11-15T14:41:24;9.40;;;4.88;;
37164;SDS011;23057;48.554;14.454;2022-11-15T14:44:02;5.97;;;4.25;;
37164;SDS011;23057;48.554;14.454;2022-11-15T14:46:35;10.07;;;4.65;;
37164;SDS011;23057;48.554;14.454;2022-11-15T14:49:05;7.50;;;4.53;;
37164;SDS011;23057;48.554;14.454;2022-11-15T14:51:36;7.53;;;5.00;;
37164;SDS011;23057;48.554;14.454;2022-11-15T14:54:10;8.93;;;5.82;;
37164;SDS011;23057;48.554;14.454;2022-11-15T14:56:41;9.80;;;6.03;;
37164;SDS011;23057;48.554;14.454;2022-11-15T14:59:12;6.97;;;5.18;;
37164;SDS011;23057;48.554;14.454;2022-11-15T15:01:43;7.03;;;5.15;;
37164;SDS011;23057;48.554;14.454;2022-11-15T15:04:14;8.10;;;5.40;;
37164;SDS011;23057;48.554;14.454;2022-11-15T15:06:45;9.60;;;5.90;;
37164;SDS011;23057;48.554;14.454;2022-11-15T15:09:15;9.70;;;4.45;;
37164;SDS011;23057;48.554;14.454;2022-11-15T15:11:46;7.93;;;5.32;;
37164;SDS011;23057;48.554;14.454;2022-11-15T15:14:17;13.20;;;5.60;;
37164;SDS011;23057;48.554;14.454;2022-11-15T15:16:48;10.35;;;4.65;;
37164;SDS011;23057;48.554;14.454;2022-11-15T15:19:19;7.30;;;4.95;;
37164;SDS011;23057;48.554;14.454;2022-11-15T15:21:49;15.23;;;5.57;;
37164;SDS011;23057;48.554;14.454;2022-11-15T15:24:20;8.05;;;4.20;;
37164;SDS011;23057;48.554;14.454;2022-11-15T15:26:51;7.30;;;4.80;;
37164;SDS011;23057;48.554;14.454;2022-11-15T15:29:22;6.97;;;5.13;;
37164;SDS011;23057;48.554;14.454;2022-11-15T15:31:53;9.07;;;4.93;;
37164;SDS011;23057;48.554;14.454;2022-11-15T15:34:24;6.80;;;4.55;;
37164;SDS011;23057;48.554;14.454;2022-11-15T15:39:55;9.15;;;5.18;;
37164;SDS011;23057;48.554;14.454;2022-11-15T15:42:27;8.32;;;4.85;;
37164;SDS011;23057;48.554;14.454;2022-11-15T15:44:58;17.45;;;6.10;;
37164;SDS011;23057;48.554;14.454;2022-11-15T15:47:28;17.25;;;6.47;;
37164;SDS011;23057;48.554;14.454;2022-11-15T15:49:59;17.65;;;5.78;;
37164;SDS011;23057;48.554;14.454;2022-11-15T15:52:30;9.05;;;5.40;;
37164;SDS011;23057;48.554;14.454;2022-11-15T15:55:01;8.93;;;4.97;;
37164;SDS011;23057;48.554;14.454;2022-11-15T15:57:32;9.88;;;5.00;;
37164;SDS011;23057;48.554;14.454;2022-11-15T16:00:03;9.85;;;6.15;;
37164;SDS011;23057;48.554;14.454;2022-11-15T16:02:36;10.38;;;5.45;;
37164;SDS011;23057;48.554;14.454;2022-11-15T16:05:07;12.40;;;5.75;;
37164;SDS011;23057;48.554;14.454;2022-11-15T16:07:40;7.25;;;5.22;;
37164;SDS011;23057;48.554;14.454;2022-11-15T16:12:49;9.93;;;5.65;;
37164;SDS011;23057;48.554;14.454;2022-11-15T16:15:22;8.65;;;5.30;;
37164;SDS011;23057;48.554;14.454;2022-11-15T16:17:58;7.35;;;5.53;;
37164;SDS011;23057;48.554;14.454;2022-11-15T16:20:32;9.25;;;4.80;;
37164;SDS011;23057;48.554;14.454;2022-11-15T16:23:06;9.32;;;5.60;;
37164;SDS011;23057;48.554;14.454;2022-11-15T16:28:26;11.88;;;5.20;;
37164;SDS011;23057;48.554;14.454;2022-11-15T16:31:08;7.22;;;5.03;;
37164;SDS011;23057;48.554;14.454;2022-11-15T16:33:42;10.13;;;4.95;;
37164;SDS011;23057;48.554;14.454;2022-11-15T16:36:18;10.60;;;5.65;;
37164;SDS011;23057;48.554;14.454;2022-11-15T16:38:56;9.77;;;5.10;;
37164;SDS011;23057;48.554;14.454;2022-11-15T16:41:28;8.48;;;5.18;;
37164;SDS011;23057;48.554;14.454;2022-11-15T16:43:59;7.28;;;4.90;;
37164;SDS011;23057;48.554;14.454;2022-11-15T16:46:30;10.13;;;5.35;;
37164;SDS011;23057;48.554;14.454;2022-11-15T16:49:02;9.00;;;5.63;;
37164;SDS011;23057;48.554;14.454;2022-11-15T16:51:33;7.63;;;5.07;;
37164;SDS011;23057;48.554;14.454;2022-11-15T16:54:04;9.70;;;5.15;;
37164;SDS011;23057;48.554;14.454;2022-11-15T16:56:35;11.85;;;5.22;;
37164;SDS011;23057;48.554;14.454;2022-11-15T16:59:06;13.07;;;5.40;;
37164;SDS011;23057;48.554;14.454;2022-11-15T17:01:45;21.67;;;5.85;;
37164;SDS011;23057;48.554;14.454;2022-11-15T17:04:21;9.05;;;5.45;;
37164;SDS011;23057;48.554;14.454;2022-11-15T17:06:52;8.18;;;5.30;;
37164;SDS011;23057;48.554;14.454;2022-11-15T17:09:23;12.27;;;5.03;;
37164;SDS011;23057;48.554;14.454;2022-11-15T17:11:54;43.95;;;5.75;;
37164;SDS011;23057;48.554;14.454;2022-11-15T17:14:25;21.75;;;5.53;;
37164;SDS011;23057;48.554;14.454;2022-11-15T17:16:56;28.50;;;4.93;;
37164;SDS011;23057;48.554;14.454;2022-11-15T17:19:27;15.32;;;5.35;;
37164;SDS011;23057;48.554;14.454;2022-11-15T17:21:59;9.13;;;5.40;;
37164;SDS011;23057;48.554;14.454;2022-11-15T17:24:30;12.52;;;5.28;;
37164;SDS011;23057;48.554;14.454;2022-11-15T17:27:00;13.23;;;5.03;;
37164;SDS011;23057;48.554;14.454;2022-11-15T17:29:31;21.90;;;5.40;;
37164;SDS011;23057;48.554;14.454;2022-11-15T17:32:02;6.80;;;4.68;;
37164;SDS011;23057;48.554;14.454;2022-11-15T17:34:33;20.48;;;5.20;;
37164;SDS011;23057;48.554;14.454;2022-11-15T17:37:04;9.48;;;4.75;;
37164;SDS011;23057;48.554;14.454;2022-11-15T17:39:35;20.77;;;5.35;;
37164;SDS011;23057;48.554;14.454;2022-11-15T17:42:06;11.20;;;4.53;;
37164;SDS011;23057;48.554;14.454;2022-11-15T17:44:37;15.82;;;5.10;;